createdAt,value
2022-11-29T17:25:35.865Z,2.70
2022-11-29T17:28:17.549Z,3.20
2022-11-29T17:30:54.436Z,3.53
2022-11-29T17:33:33.391Z,3.20
2022-11-29T17:36:12.668Z,3.10
2022-11-29T17:38:48.992Z,3.08
2022-11-29T17:41:25.869Z,3.50
2022-11-29T17:43:57.238Z,4.10
2022-11-29T17:46:39.904Z,3.53
2022-11-29T17:49:19.839Z,3.40
2022-11-29T17:51:52.184Z,3.22
2022-11-29T17:56:59.439Z,3.72
2022-11-29T17:59:32.350Z,3.10
2022-11-29T18:02:05.763Z,3.05
2022-11-29T18:04:37.082Z,2.47
2022-11-29T18:07:19.687Z,2.88
2022-11-29T18:09:56.052Z,2.63
2022-11-29T18:12:28.978Z,2.20
2022-11-29T18:15:01.957Z,2.28
2022-11-29T18:17:35.600Z,3.00
2022-11-29T18:20:13.607Z,2.83
2022-11-29T18:22:50.610Z,3.53
2022-11-29T18:25:41.380Z,3.33
2022-11-29T18:28:11.911Z,2.90
2022-11-29T18:30:50.846Z,2.90
2022-11-29T18:33:22.638Z,3.15
2022-11-29T18:35:55.688Z,2.92
2022-11-29T18:38:25.882Z,2.47
2022-11-29T18:40:57.772Z,2.63
2022-11-29T18:43:30.209Z,3.20
2022-11-29T18:45:57.439Z,3.33
2022-11-29T18:48:24.795Z,3.38
2022-11-29T18:50:52.890Z,3.92
2022-11-29T18:53:21.060Z,2.47
2022-11-29T18:56:02.404Z,2.38
2022-11-29T18:58:30.090Z,2.28
2022-11-29T19:01:15.383Z,2.33
2022-11-29T19:03:53.685Z,3.22
2022-11-29T19:06:24.525Z,3.65
2022-11-29T19:08:56.858Z,3.00
2022-11-29T19:11:33.074Z,4.13
2022-11-29T19:14:09.827Z,3.90
2022-11-29T19:16:41.035Z,4.10
2022-11-29T19:19:15.857Z,4.30
2022-11-29T19:21:43.312Z,4.93
2022-11-29T19:24:20.399Z,4.63
2022-11-29T19:26:49.342Z,5.10
2022-11-29T19:29:22.998Z,5.68
2022-11-29T19:31:59.073Z,5.45
2022-11-29T19:34:31.331Z,5.63
2022-11-29T19:37:03.057Z,5.95
2022-11-29T19:39:37.011Z,5.65
2022-11-29T19:42:17.310Z,5.30
2022-11-29T19:45:16.635Z,7.15
2022-11-29T19:47:50.593Z,6.78
2022-11-29T19:50:28.261Z,6.60
2022-11-29T19:53:16.567Z,8.30
2022-11-29T19:56:02.453Z,7.30
2022-11-29T19:58:35.136Z,7.82
2022-11-29T20:01:14.994Z,8.57
2022-11-29T20:03:55.690Z,8.05
2022-11-29T20:06:26.536Z,7.72
2022-11-29T20:09:08.907Z,6.70
2022-11-29T20:11:39.116Z,7.47
2022-11-29T20:14:08.320Z,8.35
2022-11-29T20:16:41.405Z,7.82
2022-11-29T20:19:17.565Z,7.78
2022-11-29T20:21:51.363Z,7.65
2022-11-29T20:24:23.759Z,7.78
2022-11-29T20:26:51.700Z,7.95
2022-11-29T20:29:33.706Z,7.55
2022-11-29T20:32:18.197Z,7.22
2022-11-29T20:34:54.489Z,8.45
2022-11-29T20:37:44.881Z,8.40
2022-11-29T20:40:24.643Z,8.10
2022-11-29T20:43:23.941Z,8.68
2022-11-29T20:45:56.224Z,7.50
2022-11-29T20:48:29.066Z,7.57
2022-11-29T20:51:15.381Z,8.00
2022-11-29T20:53:57.486Z,7.90
2022-11-29T20:56:31.708Z,9.20
2022-11-29T20:59:04.080Z,8.57
2022-11-29T21:01:42.775Z,7.97
2022-11-29T21:04:22.951Z,8.68
2022-11-29T21:06:57.902Z,7.57
2022-11-29T21:09:29.266Z,8.30
2022-11-29T21:12:02.791Z,8.48
2022-11-29T21:14:38.066Z,8.93
2022-11-29T21:17:14.754Z,9.18
2022-11-29T21:19:45.567Z,9.80
2022-11-29T21:22:41.778Z,8.88
2022-11-29T21:25:18.192Z,10.38
2022-11-29T21:28:02.713Z,10.35
2022-11-29T21:30:39.463Z,9.80
2022-11-29T21:33:15.452Z,9.48
2022-11-29T21:35:52.498Z,9.38
2022-11-29T21:38:30.883Z,9.00
2022-11-29T21:41:03.722Z,8.82
2022-11-29T21:44:05.558Z,9.03
2022-11-29T21:46:41.594Z,9.45
2022-11-29T21:49:15.755Z,8.90
2022-11-29T21:51:58.506Z,10.63
2022-11-29T21:54:30.260Z,10.02
2022-11-29T21:59:59.524Z,9.52
2022-11-29T22:02:49.952Z,9.20
2022-11-29T22:05:28.440Z,8.40
2022-11-29T22:07:56.365Z,8.25
2022-11-29T22:10:23.637Z,7.40
2022-11-29T22:12:52.588Z,7.43
2022-11-29T22:15:24.419Z,8.15
2022-11-29T22:17:53.899Z,7.78
2022-11-29T22:20:21.999Z,8.48
2022-11-29T22:22:55.734Z,9.00
2022-11-29T22:25:30.127Z,8.32
2022-11-29T22:28:00.006Z,8.50
2022-11-29T22:30:27.258Z,9.27
2022-11-29T22:32:57.360Z,8.35
2022-11-29T22:35:24.879Z,8.35
2022-11-29T22:37:54.198Z,8.70
2022-11-29T22:40:21.505Z,9.30
2022-11-29T22:42:50.871Z,8.85
2022-11-29T22:45:18.338Z,9.13
2022-11-29T22:47:45.730Z,9.65
2022-11-29T22:50:14.179Z,9.88
2022-11-29T22:52:41.438Z,8.73
2022-11-29T22:55:09.072Z,8.80
2022-11-29T22:57:39.099Z,8.88
2022-11-29T23:00:07.436Z,9.63
2022-11-29T23:02:34.725Z,10.25
2022-11-29T23:05:02.072Z,9.70
2022-11-29T23:07:29.228Z,9.52
2022-11-29T23:09:56.430Z,9.00
2022-11-29T23:12:26.216Z,8.45
2022-11-29T23:14:57.270Z,8.48
2022-11-29T23:17:27.801Z,8.98
2022-11-29T23:19:55.407Z,9.63
2022-11-29T23:22:29.902Z,9.27
2022-11-29T23:24:57.390Z,7.35
2022-11-29T23:27:27.554Z,8.07
2022-11-29T23:29:57.959Z,8.88
2022-11-29T23:32:28.191Z,8.35
2022-11-29T23:34:58.981Z,8.70
2022-11-29T23:37:29.996Z,8.32
2022-11-29T23:39:57.413Z,7.90
2022-11-29T23:42:26.303Z,8.38
2022-11-29T23:44:58.253Z,7.25
2022-11-29T23:47:26.641Z,8.07
2022-11-29T23:49:54.710Z,7.07
2022-11-29T23:52:23.271Z,7.53
2022-11-29T23:54:51.209Z,7.70
2022-11-29T23:57:21.599Z,6.68
2022-11-29T23:59:51.922Z,7.30
